Carlinville, Illinois
Current Conditions -  °F | °C
As of 4:15 AM on Saturday 22 Nov 2014 (Local Time) from K3LF Reporting Station
Overcast Overcast  
Wind Chill: 30°   Ceiling: 6000
Heat Index: 38°   Visibility: 10mi
Dew Point: 31°   Wind: 10mph
Humidity: 79%   Direction: 160°SSE
Pressure: 30.13"   Gusts: NA
Location:  39.28°N, 89.88°W
Report Text: K3LF 221015Z AUTO 16009KT 10SM SCT048 BKN060 OVC080 03/00 A3013 RMK AO2 T00311003
Loading
Personal Weather Stations






























Interactive Weather Map New forecast layout! Learn more

10-Day Weather Forecast

Advertisements
Track Severe Weather on mobile